Time,TemperatureF,DewpointF,PressureIn,WindDirection,WindDirectionDegrees,WindSpeedMPH,WindSpeedGustMPH,Humidity,HourlyPrecipIn,Conditions,Clouds,dailyrainin,SoftwareType,DateUTC
2013-01-23 00:12:00,41.1,40.0,30.34,South,188,0.0,-999.0,96,-99.99,,,0.00,weatherlink.com 1.10,2013-01-23 06:12:00,
2013-01-23 00:27:00,40.9,40.0,30.34,South,188,0.0,-999.0,96,-99.99,,,0.00,weatherlink.com 1.10,2013-01-23 06:27:00,
2013-01-23 00:43:00,40.7,40.0,30.34,South,188,0.0,-999.0,96,-99.99,,,0.00,weatherlink.com 1.10,2013-01-23 06:43:00,
2013-01-23 00:58:00,40.6,40.0,30.34,South,188,0.0,-999.0,96,-99.99,,,0.00,weatherlink.com 1.10,2013-01-23 06:58:00,
2013-01-23 01:14:00,40.6,40.0,30.33,South,188,0.0,-999.0,96,-99.99,,,0.00,weatherlink.com 1.10,2013-01-23 07:14:00,
2013-01-23 01:28:00,40.5,40.0,30.33,South,188,0.0,-999.0,97,-99.99,,,0.00,weatherlink.com 1.10,2013-01-23 07:28:00,
2013-01-23 01:43:00,40.3,39.0,30.33,South,188,0.0,-999.0,96,-99.99,,,0.00,weatherlink.com 1.10,2013-01-23 07:43:00,
2013-01-23 01:58:00,40.1,39.0,30.34,South,188,0.0,-999.0,97,-99.99,,,0.00,weatherlink.com 1.10,2013-01-23 07:58:00,
2013-01-23 02:13:00,39.9,39.0,30.34,South,188,0.0,-999.0,97,-99.99,,,0.00,weatherlink.com 1.10,2013-01-23 08:13:00,
2013-01-23 02:28:00,39.7,39.0,30.33,South,188,0.0,-999.0,97,-99.99,,,0.00,weatherlink.com 1.10,2013-01-23 08:28:00,
2013-01-23 02:44:00,39.6,39.0,30.33,South,188,0.0,-999.0,97,-99.99,,,0.00,weatherlink.com 1.10,2013-01-23 08:44:00,
2013-01-23 02:58:00,39.4,39.0,30.33,South,188,0.0,-999.0,97,-99.99,,,0.00,weatherlink.com 1.10,2013-01-23 08:58:00,
2013-01-23 03:13:00,39.3,39.0,30.33,South,188,0.0,-999.0,97,-99.99,,,0.00,weatherlink.com 1.10,2013-01-23 09:13:00,
2013-01-23 03:28:00,39.1,38.0,30.33,South,188,0.0,-999.0,97,-99.99,,,0.00,weatherlink.com 1.10,2013-01-23 09:28:00,
2013-01-23 03:43:00,38.9,38.0,30.33,South,188,0.0,-999.0,97,-99.99,,,0.00,weatherlink.com 1.10,2013-01-23 09:43:00,
2013-01-23 03:58:00,38.8,38.0,30.33,South,188,0.0,-999.0,97,-99.99,,,0.00,weatherlink.com 1.10,2013-01-23 09:58:00,
2013-01-23 04:13:00,38.7,38.0,30.33,South,188,0.0,-999.0,97,-99.99,,,0.00,weatherlink.com 1.10,2013-01-23 10:13:00,
2013-01-23 04:28:00,38.6,38.0,30.33,South,188,0.0,-999.0,97,-99.99,,,0.00,weatherlink.com 1.10,2013-01-23 10:28:00,
2013-01-23 04:43:00,38.6,38.0,30.33,South,188,0.0,-999.0,97,-99.99,,,0.00,weatherlink.com 1.10,2013-01-23 10:43:00,
2013-01-23 04:58:00,38.6,38.0,30.33,South,188,0.0,-999.0,97,-99.99,,,0.00,weatherlink.com 1.10,2013-01-23 10:58:00,
2013-01-23 05:13:00,38.5,38.0,30.34,South,188,0.0,-999.0,97,-99.99,,,0.00,weatherlink.com 1.10,2013-01-23 11:13:00,
2013-01-23 05:28:00,38.5,38.0,30.34,South,188,0.0,-999.0,97,-99.99,,,0.00,weatherlink.com 1.10,2013-01-23 11:28:00,
2013-01-23 05:43:00,38.4,38.0,30.35,South,188,0.0,-999.0,98,-99.99,,,0.00,weatherlink.com 1.10,2013-01-23 11:43:00,
2013-01-23 05:58:00,38.3,38.0,30.36,South,188,0.0,-999.0,98,-99.99,,,0.00,weatherlink.com 1.10,2013-01-23 11:58:00,
2013-01-23 06:13:00,38.3,38.0,30.36,South,188,0.0,-999.0,98,-99.99,,,0.00,weatherlink.com 1.10,2013-01-23 12:13:00,
2013-01-23 06:28:00,38.2,38.0,30.37,South,188,0.0,-999.0,98,-99.99,,,0.00,weatherlink.com 1.10,2013-01-23 12:28:00,
2013-01-23 06:43:00,38.3,38.0,30.37,South,188,0.0,-999.0,98,-99.99,,,0.00,weatherlink.com 1.10,2013-01-23 12:43:00,
2013-01-23 06:58:00,38.4,38.0,30.37,South,188,0.0,-999.0,98,-99.99,,,0.00,weatherlink.com 1.10,2013-01-23 12:58:00,
2013-01-23 07:13:00,38.8,38.0,30.37,South,188,0.0,-999.0,98,-99.99,,,0.00,weatherlink.com 1.10,2013-01-23 13:13:00,
2013-01-23 07:28:00,39.6,39.0,30.38,South,188,0.0,-999.0,99,-99.99,,,0.00,weatherlink.com 1.10,2013-01-23 13:28:00,
2013-01-23 07:43:00,40.7,41.0,30.38,South,188,0.0,-999.0,99,-99.99,,,0.00,weatherlink.com 1.10,2013-01-23 13:43:00,
2013-01-23 07:58:00,41.7,42.0,30.37,South,188,0.0,-999.0,99,-99.99,,,0.00,weatherlink.com 1.10,2013-01-23 13:58:00,
2013-01-23 08:15:00,42.7,43.0,30.37,South,188,0.0,-999.0,99,-99.99,,,0.00,weatherlink.com 1.10,2013-01-23 14:15:00,
2013-01-23 08:28:00,43.4,43.0,30.38,South,188,0.0,-999.0,99,-99.99,,,0.00,weatherlink.com 1.10,2013-01-23 14:28:00,
2013-01-23 08:43:00,44.3,44.0,30.38,South,188,0.0,-999.0,99,-99.99,,,0.00,weatherlink.com 1.10,2013-01-23 14:43:00,
2013-01-23 09:00:00,45.9,46.0,30.39,South,188,0.0,-999.0,99,-99.99,,,0.00,weatherlink.com 1.10,2013-01-23 15:00:00,
2013-01-23 09:14:00,47.8,48.0,30.39,South,188,1.0,-999.0,99,-99.99,,,0.00,weatherlink.com 1.10,2013-01-23 15:14:00,
2013-01-23 09:29:00,49.8,49.0,30.39,South,188,0.0,-999.0,96,-99.99,,,0.00,weatherlink.com 1.10,2013-01-23 15:29:00,
2013-01-23 09:44:00,51.8,50.0,30.39,South,188,0.0,-999.0,93,-99.99,,,0.00,weatherlink.com 1.10,2013-01-23 15:44:00,
2013-01-23 09:59:00,54.6,51.0,30.40,SSE,160,0.0,-999.0,86,-99.99,,,0.00,weatherlink.com 1.10,2013-01-23 15:59:00,
2013-01-23 10:14:00,57.3,51.0,30.40,SW,223,0.0,-999.0,78,-99.99,,,0.00,weatherlink.com 1.10,2013-01-23 16:14:00,
2013-01-23 10:30:00,59.0,51.0,30.39,SSW,192,3.0,-999.0,75,-99.99,,,0.00,weatherlink.com 1.10,2013-01-23 16:30:00,
2013-01-23 10:44:00,59.8,50.0,30.39,WSW,237,4.0,-999.0,71,-99.99,,,0.00,weatherlink.com 1.10,2013-01-23 16:44:00,
2013-01-23 10:59:00,60.6,52.0,30.39,SW,227,0.0,-999.0,72,-99.99,,,0.00,weatherlink.com 1.10,2013-01-23 16:59:00,
2013-01-23 11:15:00,61.0,52.0,30.38,SSW,198,5.0,-999.0,71,-99.99,,,0.00,weatherlink.com 1.10,2013-01-23 17:15:00,
2013-01-23 11:29:00,61.9,52.0,30.38,SW,221,2.0,-999.0,69,-99.99,,,0.00,weatherlink.com 1.10,2013-01-23 17:29:00,
2013-01-23 11:44:00,61.9,52.0,30.37,South,175,2.0,-999.0,70,-99.99,,,0.00,weatherlink.com 1.10,2013-01-23 17:44:00,
2013-01-23 11:59:00,62.8,52.0,30.36,South,173,5.0,-999.0,68,-99.99,,,0.00,weatherlink.com 1.10,2013-01-23 17:59:00,
2013-01-23 12:14:00,63.3,51.0,30.35,SSW,213,6.0,-999.0,65,-99.99,,,0.00,weatherlink.com 1.10,2013-01-23 18:14:00,
2013-01-23 12:29:00,63.3,51.0,30.35,SSE,165,9.0,-999.0,65,-99.99,,,0.00,weatherlink.com 1.10,2013-01-23 18:29:00,
2013-01-23 12:44:00,63.5,51.0,30.34,SSW,207,7.0,-999.0,65,-99.99,,,0.00,weatherlink.com 1.10,2013-01-23 18:44:00,
2013-01-23 13:00:00,63.8,50.0,30.33,SW,216,0.0,-999.0,62,-99.99,,,0.00,weatherlink.com 1.10,2013-01-23 19:00:00,
2013-01-23 13:14:00,63.3,50.0,30.33,West,263,4.0,-999.0,63,-99.99,,,0.00,weatherlink.com 1.10,2013-01-23 19:14:00,
2013-01-23 13:30:00,63.1,50.0,30.32,South,191,3.0,-999.0,63,-99.99,,,0.00,weatherlink.com 1.10,2013-01-23 19:30:00,
2013-01-23 13:45:00,63.4,51.0,30.32,SW,222,3.0,-999.0,64,-99.99,,,0.00,weatherlink.com 1.10,2013-01-23 19:45:00,
2013-01-23 14:00:00,63.5,51.0,30.32,South,183,3.0,-999.0,65,-99.99,,,0.00,weatherlink.com 1.10,2013-01-23 20:00:00,
2013-01-23 14:15:00,64.3,52.0,30.31,WSW,244,2.0,-999.0,65,-99.99,,,0.00,weatherlink.com 1.10,2013-01-23 20:15:00,
2013-01-23 14:29:00,64.6,53.0,30.31,SSW,192,8.0,-999.0,67,-99.99,,,0.00,weatherlink.com 1.10,2013-01-23 20:29:00,
2013-01-23 14:44:00,64.1,53.0,30.31,SSW,198,3.0,-999.0,67,-99.99,,,0.00,weatherlink.com 1.10,2013-01-23 20:44:00,
2013-01-23 14:59:00,64.0,52.0,30.31,SW,228,3.0,-999.0,66,-99.99,,,0.00,weatherlink.com 1.10,2013-01-23 20:59:00,
2013-01-23 15:14:00,63.5,52.0,30.31,ESE,123,0.0,-999.0,66,-99.99,,,0.00,weatherlink.com 1.10,2013-01-23 21:14:00,
2013-01-23 15:29:00,64.1,53.0,30.31,SSW,209,4.0,-999.0,67,-99.99,,,0.00,weatherlink.com 1.10,2013-01-23 21:29:00,
2013-01-23 15:44:00,63.9,52.0,30.31,SW,225,2.0,-999.0,66,-99.99,,,0.00,weatherlink.com 1.10,2013-01-23 21:44:00,
2013-01-23 16:00:00,63.2,51.0,30.31,SSW,209,0.0,-999.0,65,-99.99,,,0.00,weatherlink.com 1.10,2013-01-23 22:00:00,
2013-01-23 16:15:00,63.0,51.0,30.31,South,179,0.0,-999.0,66,-99.99,,,0.00,weatherlink.com 1.10,2013-01-23 22:15:00,
2013-01-23 16:30:00,62.5,51.0,30.31,SSW,200,2.0,-999.0,67,-99.99,,,0.00,weatherlink.com 1.10,2013-01-23 22:30:00,
2013-01-23 16:45:00,61.8,51.0,30.31,SW,217,0.0,-999.0,68,-99.99,,,0.00,weatherlink.com 1.10,2013-01-23 22:45:00,
2013-01-23 17:00:00,61.2,51.0,30.31,SSE,166,4.0,-999.0,70,-99.99,,,0.00,weatherlink.com 1.10,2013-01-23 23:00:00,
2013-01-23 17:15:00,60.4,52.0,30.30,South,173,0.0,-999.0,74,-99.99,,,0.00,weatherlink.com 1.10,2013-01-23 23:15:00,
2013-01-23 17:31:00,59.5,52.0,30.30,South,189,4.0,-999.0,77,-99.99,,,0.00,weatherlink.com 1.10,2013-01-23 23:31:00,
2013-01-23 17:45:00,58.8,52.0,30.30,SSW,203,2.0,-999.0,79,-99.99,,,0.00,weatherlink.com 1.10,2013-01-23 23:45:00,
2013-01-23 18:00:00,58.5,52.0,30.30,SW,214,2.0,-999.0,79,-99.99,,,0.00,weatherlink.com 1.10,2013-01-24 00:00:00,
2013-01-23 18:15:00,58.4,52.0,30.30,SSW,202,0.0,-999.0,80,-99.99,,,0.00,weatherlink.com 1.10,2013-01-24 00:15:00,
2013-01-23 18:31:00,58.0,53.0,30.30,SSW,202,5.0,-999.0,82,-99.99,,,0.00,weatherlink.com 1.10,2013-01-24 00:31:00,
2013-01-23 18:45:00,57.8,52.0,30.30,SSW,200,0.0,-999.0,82,-99.99,,,0.00,weatherlink.com 1.10,2013-01-24 00:45:00,
2013-01-23 19:00:00,57.4,52.0,30.30,SSW,212,3.0,-999.0,83,-99.99,,,0.00,weatherlink.com 1.10,2013-01-24 01:00:00,
2013-01-23 19:15:00,57.4,52.0,30.30,SSW,194,0.0,-999.0,82,-99.99,,,0.00,weatherlink.com 1.10,2013-01-24 01:15:00,
2013-01-23 19:30:00,57.4,52.0,30.31,SSW,205,0.0,-999.0,82,-99.99,,,0.00,weatherlink.com 1.10,2013-01-24 01:30:00,
2013-01-23 19:45:00,57.3,52.0,30.31,SSW,200,0.0,-999.0,83,-99.99,,,0.00,weatherlink.com 1.10,2013-01-24 01:45:00,
2013-01-23 20:00:00,57.4,52.0,30.30,South,190,0.0,-999.0,83,-99.99,,,0.00,weatherlink.com 1.10,2013-01-24 02:00:00,
2013-01-23 20:15:00,57.6,53.0,30.30,SSW,213,0.0,-999.0,83,-99.99,,,0.00,weatherlink.com 1.10,2013-01-24 02:15:00,
2013-01-23 20:30:00,57.8,52.0,30.30,South,169,1.0,-999.0,82,-99.99,,,0.00,weatherlink.com 1.10,2013-01-24 02:30:00,
2013-01-23 20:45:00,58.0,52.0,30.30,SW,220,0.0,-999.0,81,-99.99,,,0.00,weatherlink.com 1.10,2013-01-24 02:45:00,
2013-01-23 21:00:00,57.8,52.0,30.30,West,269,2.0,-999.0,81,-99.99,,,0.00,weatherlink.com 1.10,2013-01-24 03:00:00,
2013-01-23 21:15:00,57.7,52.0,30.30,SW,217,1.0,-999.0,81,-99.99,,,0.00,weatherlink.com 1.10,2013-01-24 03:15:00,
2013-01-23 21:31:00,57.5,52.0,30.31,SW,221,0.0,-999.0,82,-99.99,,,0.00,weatherlink.com 1.10,2013-01-24 03:31:00,
2013-01-23 21:46:00,57.1,52.0,30.31,SW,233,0.0,-999.0,83,-99.99,,,0.00,weatherlink.com 1.10,2013-01-24 03:46:00,
2013-01-23 22:01:00,56.8,52.0,30.31,ESE,110,1.0,-999.0,84,-99.99,,,0.00,weatherlink.com 1.10,2013-01-24 04:01:00,
2013-01-23 22:16:00,56.9,52.0,30.31,SW,225,0.0,-999.0,84,-99.99,,,0.00,weatherlink.com 1.10,2013-01-24 04:16:00,
2013-01-23 22:31:00,56.9,53.0,30.31,SSW,202,0.0,-999.0,85,-99.99,,,0.00,weatherlink.com 1.10,2013-01-24 04:31:00,
2013-01-23 22:46:00,56.7,52.0,30.30,SW,226,0.0,-999.0,85,-99.99,,,0.00,weatherlink.com 1.10,2013-01-24 04:46:00,
2013-01-23 23:02:00,56.2,52.0,30.31,WSW,248,0.0,-999.0,85,-99.99,,,0.00,weatherlink.com 1.10,2013-01-24 05:02:00,
2013-01-23 23:16:00,55.8,52.0,30.31,West,259,0.0,-999.0,87,-99.99,,,0.00,weatherlink.com 1.10,2013-01-24 05:16:00,
2013-01-23 23:31:00,55.5,52.0,30.31,WSW,249,0.0,-999.0,88,-99.99,,,0.00,weatherlink.com 1.10,2013-01-24 05:31:00,
2013-01-23 23:46:00,55.1,52.0,30.31,WSW,248,0.0,-999.0,90,-99.99,,,0.00,weatherlink.com 1.10,2013-01-24 05:46:00,